Time;durP1;ratioP1;P1;durP2;ratioP2;P2;SDS_P1;SDS_P2;PMS_P1;PMS_P2;Temp;Humidity;BMP_temperature;BMP_pressure;BME280_temperature;BME280_humidity;BME280_pressure;Samples;Min_cycle;Max_cycle;Signal;HPM_P1;HPM_P2
2023/06/23 00:00:42;;;;;;;13.65;11.57;;;;;;;-140.66;100.00;55571.53;5080833;28;20032;-73
2023/06/23 00:03:30;;;;;;;14.80;12.45;;;;;;;-140.66;100.00;55571.53;5094405;28;20024;-75
2023/06/23 00:06:16;;;;;;;15.38;11.35;;;;;;;-140.66;100.00;55571.53;5096197;28;20031;-76
2023/06/23 00:09:07;;;;;;;13.23;11.68;;;;;;;-140.66;100.00;55571.53;5095403;28;20430;-75
2023/06/23 00:11:53;;;;;;;13.13;11.73;;;;;;;-140.66;100.00;55571.53;5095772;28;20035;-76
2023/06/23 00:14:38;;;;;;;13.05;11.30;;;;;;;-140.66;100.00;55571.53;5095367;28;20028;-74
2023/06/23 00:17:24;;;;;;;13.88;12.40;;;;;;;-140.66;100.00;55571.53;5131445;27;20035;-74
2023/06/23 00:20:12;;;;;;;12.68;11.38;;;;;;;-140.66;100.00;55571.53;5151824;27;20262;-76
2023/06/23 00:22:58;;;;;;;12.93;11.45;;;;;;;-140.66;100.00;55571.53;5141181;27;20023;-75
2023/06/23 00:25:44;;;;;;;17.77;11.32;;;;;;;-140.66;100.00;55571.53;5155734;27;20026;-74
2023/06/23 00:28:30;;;;;;;14.27;11.23;;;;;;;-140.66;100.00;55571.53;5155116;27;20083;-75
2023/06/23 00:31:15;;;;;;;12.52;11.18;;;;;;;-140.66;100.00;55571.53;5143424;27;20034;-75
2023/06/23 00:34:01;;;;;;;15.13;11.23;;;;;;;-140.66;100.00;55571.53;5135746;27;20019;-75
2023/06/23 00:36:47;;;;;;;14.85;11.60;;;;;;;-140.66;100.00;55571.53;5121529;27;20124;-75
2023/06/23 00:39:33;;;;;;;12.27;10.90;;;;;;;-140.66;100.00;55571.53;5134927;27;20038;-73
2023/06/23 00:42:21;;;;;;;13.90;11.52;;;;;;;-140.66;100.00;55571.53;5121163;27;20344;-77
2023/06/23 00:45:07;;;;;;;11.98;10.77;;;;;;;-140.66;100.00;55571.53;5135089;27;20449;-75
2023/06/23 00:47:54;;;;;;;13.82;11.60;;;;;;;-140.66;100.00;55571.53;5135017;27;20445;-76
2023/06/23 00:50:41;;;;;;;13.25;11.15;;;;;;;-140.66;100.00;55571.53;5126431;27;20096;-75
2023/06/23 00:53:27;;;;;;;13.18;11.50;;;;;;;-140.66;100.00;55571.53;5134438;27;20085;-76
2023/06/23 00:56:21;;;;;;;13.60;11.38;;;;;;;-140.66;100.00;55571.53;5135917;27;20132;-76
2023/06/23 00:59:07;;;;;;;12.82;11.43;;;;;;;-140.66;100.00;55571.53;5134068;27;20449;-75
2023/06/23 01:01:53;;;;;;;14.75;12.05;;;;;;;-140.66;100.00;55571.53;5122316;27;20526;-75
2023/06/23 01:04:39;;;;;;;14.57;11.90;;;;;;;-140.66;100.00;55571.53;5134746;27;20022;-76
2023/06/23 01:08:09;;;;;;;14.63;11.60;;;;;;;-140.66;100.00;55571.53;5134771;27;20110;-76
2023/06/23 01:11:18;;;;;;;14.98;12.05;;;;;;;-140.66;100.00;55571.53;5033115;28;20083;-73
2023/06/23 01:14:23;;;;;;;14.90;11.45;;;;;;;-140.66;100.00;55571.53;5033121;28;20465;-75
2023/06/23 01:17:32;;;;;;;13.07;11.68;;;;;;;-140.66;100.00;55571.53;5133849;27;20031;-76
2023/06/23 01:20:25;;;;;;;16.17;11.85;;;;;;;-140.66;100.00;55571.53;5134171;27;20147;-75
2023/06/23 01:23:20;;;;;;;22.65;12.68;;;;;;;-140.66;100.00;55571.53;5119347;27;20088;-75
2023/06/23 01:26:21;;;;;;;16.23;12.15;;;;;;;-140.66;100.00;55571.53;5134414;27;20055;-76
2023/06/23 01:29:09;;;;;;;13.77;11.77;;;;;;;-140.66;100.00;55571.53;5119748;27;20342;-74
2023/06/23 01:32:04;;;;;;;16.80;11.85;;;;;;;-140.66;100.00;55571.53;5119326;27;20084;-75
2023/06/23 01:34:55;;;;;;;18.02;12.50;;;;;;;-140.66;100.00;55571.53;5134269;27;20064;-75
2023/06/23 01:37:47;;;;;;;15.27;11.57;;;;;;;-140.66;100.00;55571.53;5134668;27;20199;-75
2023/06/23 01:40:34;;;;;;;12.48;11.18;;;;;;;-140.66;100.00;55571.53;5133436;28;20414;-75
2023/06/23 01:43:29;;;;;;;12.93;11.45;;;;;;;-140.66;100.00;55571.53;5133882;28;20020;-75
2023/06/23 01:46:25;;;;;;;12.82;11.20;;;;;;;-140.66;100.00;55571.53;5133637;28;20035;-74
2023/06/23 01:49:16;;;;;;;12.80;11.43;;;;;;;-140.66;100.00;55571.53;5133999;28;20580;-74
2023/06/23 01:52:04;;;;;;;12.98;11.52;;;;;;;-140.66;100.00;55571.53;5133989;28;20042;-75
2023/06/23 01:54:51;;;;;;;14.68;11.30;;;;;;;-140.66;100.00;55571.53;5134090;28;20167;-75
2023/06/23 01:57:38;;;;;;;17.00;11.20;;;;;;;-140.66;100.00;55571.53;5134246;28;20038;-76
2023/06/23 02:00:24;;;;;;;15.50;11.65;;;;;;;-140.66;100.00;55571.53;5133395;28;20041;-76
2023/06/23 02:03:11;;;;;;;12.90;11.02;;;;;;;-140.66;100.00;55571.53;5134046;28;20058;-76
2023/06/23 02:05:58;;;;;;;12.77;11.02;;;;;;;-140.66;100.00;55571.53;5134362;28;20027;-76
2023/06/23 02:08:45;;;;;;;14.85;11.23;;;;;;;-140.66;100.00;55571.53;5134202;28;20055;-76
2023/06/23 02:11:32;;;;;;;12.65;11.15;;;;;;;-140.66;100.00;55571.53;5133995;28;20027;-73
2023/06/23 02:14:20;;;;;;;12.73;11.43;;;;;;;-140.66;100.00;55571.53;5134141;28;20067;-72
2023/06/23 02:17:10;;;;;;;12.40;11.10;;;;;;;-140.66;100.00;55571.53;5133755;28;20062;-73
2023/06/23 02:19:58;;;;;;;15.95;11.90;;;;;;;-140.66;100.00;55571.53;5133808;28;20059;-73
2023/06/23 02:22:48;;;;;;;14.57;11.85;;;;;;;-140.66;100.00;55571.53;5118785;28;20088;-74
2023/06/23 02:25:35;;;;;;;13.05;11.60;;;;;;;-140.66;100.00;55571.53;5119382;28;20027;-74
2023/06/23 02:28:21;;;;;;;16.48;11.30;;;;;;;-140.66;100.00;55571.53;5133968;28;20019;-72
2023/06/23 02:31:08;;;;;;;15.65;12.23;;;;;;;-140.66;100.00;55571.53;5133753;28;20102;-73
2023/06/23 02:33:54;;;;;;;14.00;11.48;;;;;;;-140.66;100.00;55571.53;5134115;28;20019;-73
2023/06/23 02:36:47;;;;;;;13.98;11.82;;;;;;;-140.66;100.00;55571.53;5134420;28;20051;-74
2023/06/23 02:39:39;;;;;;;14.23;11.57;;;;;;;-140.66;100.00;55571.53;5134818;28;20027;-74
2023/06/23 02:42:32;;;;;;;15.60;11.43;;;;;;;-140.66;100.00;55571.53;5121034;28;20023;-74
2023/06/23 02:45:27;;;;;;;18.17;11.45;;;;;;;-140.66;100.00;55571.53;5137249;27;20106;-73
2023/06/23 02:48:17;;;;;;;14.77;12.02;;;;;;;-140.66;100.00;55571.53;5136978;27;20023;-72
2023/06/23 02:51:04;;;;;;;16.10;12.05;;;;;;;-140.66;100.00;55571.53;5136600;27;20033;-73
2023/06/23 02:53:56;;;;;;;14.88;11.98;;;;;;;-140.66;100.00;55571.53;5137522;27;20027;-74
2023/06/23 02:56:43;;;;;;;15.52;11.45;;;;;;;-140.66;100.00;55571.53;5138327;27;20030;-72
2023/06/23 02:59:32;;;;;;;18.05;12.48;;;;;;;-140.66;100.00;55571.53;5123062;27;20448;-72
2023/06/23 03:02:22;;;;;;;16.63;12.07;;;;;;;-140.66;100.00;55571.53;5137065;27;20031;-72
2023/06/23 03:05:08;;;;;;;17.00;12.27;;;;;;;-140.66;100.00;55571.53;5137529;27;20054;-72
2023/06/23 03:07:54;;;;;;;15.48;11.77;;;;;;;-140.66;100.00;55571.53;5137703;27;20061;-73
2023/06/23 03:10:39;;;;;;;13.85;11.35;;;;;;;-140.66;100.00;55571.53;5137299;27;20031;-73
2023/06/23 03:13:25;;;;;;;17.48;11.45;;;;;;;-140.66;100.00;55571.53;5137121;27;20035;-72
2023/06/23 03:16:49;;;;;;;14.98;11.77;;;;;;;-140.66;100.00;55571.53;5137731;27;20022;-70
2023/06/23 03:19:45;;;;;;;15.40;11.18;;;;;;;-140.66;100.00;55571.53;5080129;27;20486;-73
2023/06/23 03:22:43;;;;;;;15.85;11.60;;;;;;;-140.66;100.00;55571.53;5135959;27;20481;-72
2023/06/23 03:25:29;;;;;;;14.40;11.38;;;;;;;-140.66;100.00;55571.53;5136281;27;20372;-72
2023/06/23 03:28:28;;;;;;;16.20;11.95;;;;;;;-140.66;100.00;55571.53;5122885;27;20027;-73
2023/06/23 03:31:16;;;;;;;14.05;11.68;;;;;;;-140.66;100.00;55571.53;5132408;27;20026;-73
2023/06/23 03:34:02;;;;;;;17.42;11.38;;;;;;;-140.66;100.00;55571.53;5137155;27;20119;-70
2023/06/23 03:36:49;;;;;;;12.15;10.85;;;;;;;-140.66;100.00;55571.53;5137176;27;20023;-71
2023/06/23 03:39:39;;;;;;;13.07;11.18;;;;;;;-140.66;100.00;55571.53;5137336;27;20034;-71
2023/06/23 03:42:25;;;;;;;16.25;11.43;;;;;;;-140.66;100.00;55571.53;5137458;27;20035;-71
2023/06/23 03:45:14;;;;;;;15.60;11.27;;;;;;;-140.66;100.00;55571.53;5137246;27;20038;-72
2023/06/23 03:48:06;;;;;;;13.20;11.63;;;;;;;-140.66;100.00;55571.53;5136079;27;20037;-72
2023/06/23 03:50:55;;;;;;;13.77;11.23;;;;;;;-140.66;100.00;55571.53;5135981;27;20037;-72
2023/06/23 03:53:43;;;;;;;14.38;11.68;;;;;;;-140.66;100.00;55571.53;5136726;27;20023;-73
2023/06/23 03:56:33;;;;;;;16.50;12.00;;;;;;;-140.66;100.00;55571.53;5135566;27;20027;-72
2023/06/23 03:59:23;;;;;;;16.52;11.45;;;;;;;-140.66;100.00;55571.53;5121265;27;20441;-72
2023/06/23 04:02:11;;;;;;;13.57;11.68;;;;;;;-140.66;100.00;55571.53;5121325;27;20444;-72
2023/06/23 04:04:59;;;;;;;15.20;12.20;;;;;;;-140.66;100.00;55571.53;5121512;27;20030;-72
2023/06/23 04:07:46;;;;;;;18.70;12.13;;;;;;;-140.66;100.00;55571.53;5135880;27;20448;-72
2023/06/23 04:10:34;;;;;;;16.90;12.35;;;;;;;-140.66;100.00;55571.53;5136214;27;20042;-72
2023/06/23 04:13:21;;;;;;;18.15;12.48;;;;;;;-140.66;100.00;55571.53;5136055;27;20019;-72
2023/06/23 04:16:09;;;;;;;18.05;13.10;;;;;;;-140.66;100.00;55571.53;5136262;27;20105;-72
2023/06/23 04:18:56;;;;;;;18.25;12.13;;;;;;;-140.66;100.00;55571.53;5136220;27;20076;-72
2023/06/23 04:21:42;;;;;;;17.20;12.60;;;;;;;-140.66;100.00;55571.53;5127938;27;20027;-72
2023/06/23 04:24:31;;;;;;;16.90;11.93;;;;;;;-140.66;100.00;55571.53;5135518;27;20406;-71
2023/06/23 04:27:20;;;;;;;16.40;12.43;;;;;;;-140.66;100.00;55571.53;5136563;27;20031;-71
2023/06/23 04:30:07;;;;;;;14.25;12.77;;;;;;;-140.66;100.00;55571.53;5135539;27;20027;-72
2023/06/23 04:32:53;;;;;;;15.88;12.07;;;;;;;-140.66;100.00;55571.53;5135528;27;20016;-72
2023/06/23 04:35:39;;;;;;;14.95;12.57;;;;;;;-140.66;100.00;55571.53;5136303;27;20095;-72
2023/06/23 04:38:30;;;;;;;17.50;12.55;;;;;;;-140.66;100.00;55571.53;5135728;27;20125;-72
2023/06/23 04:41:19;;;;;;;20.10;12.77;;;;;;;-140.66;100.00;55571.53;5134790;27;20042;-72
2023/06/23 04:44:09;;;;;;;16.25;12.07;;;;;;;-140.66;100.00;55571.53;5135671;27;20023;-71
2023/06/23 04:46:59;;;;;;;15.80;12.45;;;;;;;-140.66;100.00;55571.53;5135073;27;20369;-71
2023/06/23 04:49:49;;;;;;;14.45;12.95;;;;;;;-140.66;100.00;55571.53;5135129;27;20031;-73
2023/06/23 04:52:40;;;;;;;14.80;12.13;;;;;;;-140.66;100.00;55571.53;5135541;27;20338;-72
2023/06/23 04:55:30;;;;;;;18.55;12.80;;;;;;;-140.66;100.00;55571.53;5135303;27;20031;-72
2023/06/23 04:58:17;;;;;;;16.77;12.43;;;;;;;-140.66;100.00;55571.53;5133952;27;20437;-72
2023/06/23 05:01:04;;;;;;;21.83;12.77;;;;;;;-140.66;100.00;55571.53;5119687;27;20110;-73
2023/06/23 05:03:52;;;;;;;18.88;13.27;;;;;;;-140.66;100.00;55571.53;5135341;27;20168;-72
2023/06/23 05:06:39;;;;;;;18.38;12.88;;;;;;;-140.66;100.00;55571.53;5134387;27;20417;-73
2023/06/23 05:09:26;;;;;;;14.32;12.55;;;;;;;-140.66;100.00;55571.53;5134744;27;20039;-74
2023/06/23 05:12:14;;;;;;;14.20;12.68;;;;;;;-140.66;100.00;55571.53;5133825;27;20366;-72
2023/06/23 05:15:01;;;;;;;18.20;12.52;;;;;;;-140.66;100.00;55571.53;5134540;27;20060;-72
2023/06/23 05:17:49;;;;;;;19.13;12.70;;;;;;;-140.66;100.00;55571.53;5135010;27;20030;-73
2023/06/23 05:20:40;;;;;;;14.95;12.43;;;;;;;-140.66;100.00;55571.53;5134518;27;20086;-75
2023/06/23 05:23:27;;;;;;;25.92;12.90;;;;;;;-140.66;100.00;55571.53;5134380;27;20034;-75
2023/06/23 05:26:15;;;;;;;14.77;12.13;;;;;;;-140.66;100.00;55571.53;5134838;27;20042;-74
2023/06/23 05:29:07;;;;;;;15.68;12.57;;;;;;;-140.66;100.00;55571.53;5134603;27;20077;-74
2023/06/23 05:31:55;;;;;;;17.98;12.57;;;;;;;-140.66;100.00;55571.53;5133837;27;20334;-74
2023/06/23 05:34:43;;;;;;;19.80;13.68;;;;;;;-140.66;100.00;55571.53;5135263;27;20023;-75
2023/06/23 05:37:32;;;;;;;16.67;12.77;;;;;;;-140.66;100.00;55571.53;5134047;27;20485;-74
2023/06/23 05:40:17;;;;;;;16.60;12.15;;;;;;;-140.66;100.00;55571.53;5134021;27;20027;-75
2023/06/23 05:43:03;;;;;;;16.98;12.82;;;;;;;-140.66;100.00;55571.53;5135047;28;20016;-75
2023/06/23 05:45:53;;;;;;;20.88;13.50;;;;;;;-140.66;100.00;55571.53;5134297;28;20357;-75
2023/06/23 05:48:44;;;;;;;16.33;13.30;;;;;;;-140.66;100.00;55571.53;5119353;28;20030;-74
2023/06/23 05:51:31;;;;;;;18.27;13.32;;;;;;;-140.66;100.00;55571.53;5134429;28;20114;-75
2023/06/23 05:54:21;;;;;;;18.92;13.10;;;;;;;-140.66;100.00;55571.53;5134060;28;20027;-75
2023/06/23 05:57:10;;;;;;;18.55;13.40;;;;;;;-140.66;100.00;55571.53;5135268;28;20382;-75
2023/06/23 06:00:09;;;;;;;15.60;13.88;;;;;;;-140.66;100.00;55571.53;5133318;28;20028;-75
2023/06/23 06:02:56;;;;;;;23.88;14.70;;;;;;;-140.66;100.00;55571.53;5133617;28;20364;-75
2023/06/23 06:05:46;;;;;;;15.77;13.88;;;;;;;-140.66;100.00;55571.53;5134423;28;20062;-74
2023/06/23 06:08:33;;;;;;;17.05;14.02;;;;;;;-140.66;100.00;55571.53;5134461;28;20110;-74
2023/06/23 06:11:21;;;;;;;16.60;14.38;;;;;;;-140.66;100.00;55571.53;5119017;28;20058;-75
2023/06/23 06:14:09;;;;;;;18.65;13.90;;;;;;;-140.66;100.00;55571.53;5134488;28;20043;-76
2023/06/23 06:16:57;;;;;;;18.45;13.60;;;;;;;-140.66;100.00;55571.53;5135041;28;20036;-74
2023/06/23 06:19:44;;;;;;;16.50;14.07;;;;;;;-140.66;100.00;55571.53;5136473;27;20429;-75
2023/06/23 06:22:34;;;;;;;20.92;14.30;;;;;;;-140.66;100.00;55571.53;5139049;27;20027;-74
2023/06/23 06:25:21;;;;;;;18.83;13.25;;;;;;;-140.66;100.00;55571.53;5137880;27;20023;-74
2023/06/23 06:28:10;;;;;;;19.10;14.45;;;;;;;-140.66;100.00;55571.53;5122650;27;20408;-75
2023/06/23 06:30:58;;;;;;;18.58;14.30;;;;;;;-140.66;100.00;55571.53;5137569;27;20027;-74
2023/06/23 06:33:48;;;;;;;16.88;13.68;;;;;;;-140.66;100.00;55571.53;5138082;27;20091;-75
2023/06/23 06:36:36;;;;;;;18.38;14.30;;;;;;;-140.66;100.00;55571.53;5138775;27;20030;-74
2023/06/23 06:39:24;;;;;;;23.67;14.30;;;;;;;-140.66;100.00;55571.53;5122999;27;20035;-74
2023/06/23 06:42:09;;;;;;;24.10;14.13;;;;;;;-140.66;100.00;55571.53;5122958;27;20115;-75
2023/06/23 06:44:55;;;;;;;16.08;13.45;;;;;;;-140.66;100.00;55571.53;5137731;27;20038;-75
2023/06/23 06:47:44;;;;;;;17.52;13.38;;;;;;;-140.66;100.00;55571.53;5136672;27;20031;-74
2023/06/23 06:50:32;;;;;;;16.85;13.15;;;;;;;-140.66;100.00;55571.53;5136811;27;20023;-74
2023/06/23 06:53:20;;;;;;;14.68;13.00;;;;;;;-140.66;100.00;55571.53;5136593;27;20043;-75
2023/06/23 06:56:06;;;;;;;15.98;13.13;;;;;;;-140.66;100.00;55571.53;5137858;27;20110;-75
2023/06/23 06:58:52;;;;;;;14.35;12.90;;;;;;;-140.66;100.00;55571.53;5122111;27;20019;-74
2023/06/23 07:01:40;;;;;;;13.93;12.30;;;;;;;-140.66;100.00;55571.53;5137537;27;20066;-74
2023/06/23 07:04:28;;;;;;;13.80;12.40;;;;;;;-140.66;100.00;55571.53;5121828;27;20049;-75
2023/06/23 07:07:14;;;;;;;16.98;12.63;;;;;;;-140.66;100.00;55571.53;5137940;27;20026;-71
2023/06/23 07:10:01;;;;;;;16.00;11.88;;;;;;;-140.66;100.00;55571.53;5138016;27;20138;-71
2023/06/23 07:12:48;;;;;;;13.10;11.75;;;;;;;-140.66;100.00;55571.53;5122305;27;20364;-78
2023/06/23 07:15:34;;;;;;;13.38;11.98;;;;;;;-140.66;100.00;55571.53;5137242;27;20023;-74
2023/06/23 07:18:20;;;;;;;17.60;12.30;;;;;;;-140.66;100.00;55571.53;5136783;27;20438;-74
2023/06/23 07:21:06;;;;;;;14.75;12.05;;;;;;;-140.66;100.00;55571.53;5136952;27;20031;-75
2023/06/23 07:23:52;;;;;;;14.43;11.05;;;;;;;-140.66;100.00;55571.53;5122596;27;20069;-75
2023/06/23 07:26:38;;;;;;;13.45;11.65;;;;;;;-140.66;100.00;55571.53;5137447;27;20015;-72
2023/06/23 07:29:23;;;;;;;20.92;11.35;;;;;;;-140.66;100.00;55571.53;5136663;27;20437;-74
2023/06/23 07:32:10;;;;;;;12.43;10.85;;;;;;;-140.66;100.00;55571.53;5136413;27;20376;-74
2023/06/23 07:34:56;;;;;;;13.00;10.45;;;;;;;-140.66;100.00;55571.53;5122242;27;20368;-75
2023/06/23 07:37:42;;;;;;;13.32;10.30;;;;;;;-140.66;100.00;55571.53;5121722;27;20061;-75
2023/06/23 07:40:28;;;;;;;10.98;9.70;;;;;;;-140.66;100.00;55571.53;5137584;27;20039;-74
2023/06/23 07:43:13;;;;;;;13.05;10.35;;;;;;;-140.66;100.00;55571.53;5136852;27;20027;-74
2023/06/23 07:45:59;;;;;;;11.15;9.90;;;;;;;-140.66;100.00;55571.53;5136898;27;20023;-74
2023/06/23 07:48:45;;;;;;;12.07;10.48;;;;;;;-140.66;100.00;55571.53;5121200;27;20035;-74
2023/06/23 07:51:31;;;;;;;13.88;10.48;;;;;;;-140.66;100.00;55571.53;5136752;27;20110;-74
2023/06/23 07:54:16;;;;;;;13.63;11.50;;;;;;;-140.66;100.00;55571.53;5136503;27;20030;-74
2023/06/23 07:57:04;;;;;;;12.60;10.85;;;;;;;-140.66;100.00;55571.53;5135650;27;20102;-73
2023/06/23 07:59:49;;;;;;;12.85;11.55;;;;;;;-140.66;100.00;55571.53;5135132;27;20043;-71
2023/06/23 08:02:35;;;;;;;14.18;10.85;;;;;;;-140.66;100.00;55571.53;5135642;27;20019;-72
2023/06/23 08:05:21;;;;;;;14.18;11.05;;;;;;;-140.66;100.00;55571.53;5135522;27;20039;-72
2023/06/23 08:08:07;;;;;;;16.17;10.55;;;;;;;-140.66;100.00;55571.53;5135811;27;20065;-72
2023/06/23 08:10:52;;;;;;;20.00;10.25;;;;;;;-140.66;100.00;55571.53;5136451;27;20087;-72
2023/06/23 08:13:38;;;;;;;14.82;9.88;;;;;;;-140.66;100.00;55571.53;5135599;27;20076;-72
2023/06/23 08:16:24;;;;;;;11.65;8.80;;;;;;;-140.66;100.00;55571.53;5135217;27;20051;-72
2023/06/23 08:19:10;;;;;;;12.18;9.40;;;;;;;-140.66;100.00;55571.53;5135665;27;20122;-71
2023/06/23 08:21:55;;;;;;;9.43;8.43;;;;;;;-140.66;100.00;55571.53;5121940;27;20037;-72
2023/06/23 08:24:41;;;;;;;15.98;9.00;;;;;;;-140.66;100.00;55571.53;5136087;27;20024;-75
2023/06/23 08:27:27;;;;;;;12.90;8.70;;;;;;;-140.66;100.00;55571.53;5122950;27;20058;-75
2023/06/23 08:30:15;;;;;;;10.77;8.65;;;;;;;-140.66;100.00;55571.53;5135686;27;20033;-74
2023/06/23 08:33:01;;;;;;;12.38;7.95;;;;;;;-140.66;100.00;55571.53;5120355;27;20019;-74
2023/06/23 08:35:46;;;;;;;8.40;6.70;;;;;;;-140.66;100.00;55571.53;5135851;27;20041;-74
2023/06/23 08:38:33;;;;;;;10.15;7.68;;;;;;;-140.66;100.00;55571.53;5135631;27;20019;-74
2023/06/23 08:41:21;;;;;;;10.75;8.05;;;;;;;-140.66;100.00;55571.53;5135390;27;20026;-74
2023/06/23 08:44:11;;;;;;;13.23;8.23;;;;;;;-140.66;100.00;55571.53;5135657;27;20028;-75
2023/06/23 08:47:01;;;;;;;10.57;8.77;;;;;;;-140.66;100.00;55571.53;5135795;27;20487;-75
2023/06/23 08:49:49;;;;;;;10.85;8.63;;;;;;;-140.66;100.00;55571.53;5120300;27;20035;-75
2023/06/23 08:52:35;;;;;;;9.23;8.30;;;;;;;-140.66;100.00;55571.53;5120777;27;20031;-73
2023/06/23 08:55:21;;;;;;;13.55;9.10;;;;;;;-140.66;100.00;55571.53;5120519;27;20488;-73
2023/06/23 08:58:07;;;;;;;17.90;8.13;;;;;;;-140.66;100.00;55571.53;5120238;27;20157;-73
2023/06/23 09:00:53;;;;;;;10.35;8.27;;;;;;;-140.66;100.00;55571.53;5119427;27;20019;-73
2023/06/23 09:03:39;;;;;;;11.93;9.23;;;;;;;-140.66;100.00;55571.53;5126243;27;20031;-73
2023/06/23 09:06:25;;;;;;;10.75;8.57;;;;;;;-140.66;100.00;55571.53;5134953;27;20031;-72
2023/06/23 09:09:10;;;;;;;12.68;9.52;;;;;;;-140.66;100.00;55571.53;5135719;27;20027;-73
2023/06/23 09:11:57;;;;;;;9.73;8.82;;;;;;;-140.66;100.00;55571.53;5119721;27;20038;-73
2023/06/23 09:14:43;;;;;;;9.32;8.43;;;;;;;-140.66;100.00;55571.53;5134672;27;20103;-72
2023/06/23 09:17:29;;;;;;;9.55;8.57;;;;;;;-140.66;100.00;55571.53;5135903;27;20105;-72
2023/06/23 09:20:15;;;;;;;10.35;8.48;;;;;;;-140.66;100.00;55571.53;5133918;27;20058;-74
2023/06/23 09:23:01;;;;;;;12.82;9.38;;;;;;;-140.66;100.00;55571.53;5120199;27;20031;-72
2023/06/23 09:25:47;;;;;;;10.43;9.43;;;;;;;-140.66;100.00;55571.53;5134673;27;20031;-73
2023/06/23 09:28:36;;;;;;;13.45;9.50;;;;;;;-140.66;100.00;55571.53;5134996;27;20437;-71
2023/06/23 09:31:23;;;;;;;9.18;8.27;;;;;;;-140.66;100.00;55571.53;5134279;27;20027;-71
2023/06/23 09:34:09;;;;;;;9.68;8.68;;;;;;;-140.66;100.00;55571.53;5134415;27;20019;-71
2023/06/23 09:37:06;;;;;;;12.50;9.15;;;;;;;-140.66;100.00;55571.53;5119652;27;20362;-72
2023/06/23 09:39:55;;;;;;;10.15;8.77;;;;;;;-140.66;100.00;55571.53;5134702;27;20087;-72
2023/06/23 09:42:44;;;;;;;9.65;8.68;;;;;;;-140.66;100.00;55571.53;5127246;28;20489;-75
2023/06/23 09:45:33;;;;;;;10.63;9.20;;;;;;;-140.66;100.00;55571.53;5135146;28;20353;-73
2023/06/23 09:48:19;;;;;;;11.20;8.88;;;;;;;-140.66;100.00;55571.53;5135371;28;20397;-72
2023/06/23 09:51:06;;;;;;;10.23;9.15;;;;;;;-140.66;100.00;55571.53;5134061;28;20027;-73
2023/06/23 09:53:52;;;;;;;10.70;9.00;;;;;;;-140.66;100.00;55571.53;5134911;27;20023;-74
2023/06/23 09:56:37;;;;;;;9.30;8.40;;;;;;;-140.66;100.00;55571.53;5138664;27;20055;-73
2023/06/23 09:59:23;;;;;;;9.20;8.30;;;;;;;-140.66;100.00;55571.53;5138470;27;20113;-73
2023/06/23 10:02:20;;;;;;;9.05;8.13;;;;;;;-140.66;100.00;55571.53;5137929;27;20381;-77
2023/06/23 10:05:06;;;;;;;10.05;9.00;;;;;;;-140.66;100.00;55571.53;5123450;27;20091;-73
2023/06/23 10:08:06;;;;;;;10.80;9.00;;;;;;;-140.66;100.00;55571.53;5137115;27;20088;-73
2023/06/23 10:10:52;;;;;;;9.63;8.73;;;;;;;-140.66;100.00;55571.53;5137729;27;20023;-74
2023/06/23 10:13:38;;;;;;;10.20;8.55;;;;;;;-140.66;100.00;55571.53;5138135;27;20015;-74
2023/06/23 10:16:24;;;;;;;9.23;8.32;;;;;;;-140.66;100.00;55571.53;5141668;27;20027;-73
2023/06/23 10:19:12;;;;;;;14.13;8.50;;;;;;;-140.66;100.00;55571.53;5146562;27;20083;-73
2023/06/23 10:21:58;;;;;;;12.95;8.45;;;;;;;-140.66;100.00;55571.53;5138571;27;20047;-73
2023/06/23 10:24:51;;;;;;;12.65;8.95;;;;;;;-140.66;100.00;55571.53;5139018;27;20023;-73
2023/06/23 10:27:40;;;;;;;9.77;8.88;;;;;;;-140.66;100.00;55571.53;5139157;27;20397;-74
2023/06/23 10:30:29;;;;;;;9.13;8.23;;;;;;;-140.66;100.00;55571.53;5123355;27;20456;-72
2023/06/23 10:33:19;;;;;;;12.32;8.88;;;;;;;-140.66;100.00;55571.53;5139297;27;20455;-75
2023/06/23 10:36:07;;;;;;;10.73;8.35;;;;;;;-140.66;100.00;55571.53;5138153;27;20027;-73
2023/06/23 10:38:55;;;;;;;10.07;8.35;;;;;;;-140.66;100.00;55571.53;5137558;27;20042;-74
2023/06/23 10:41:45;;;;;;;11.05;9.02;;;;;;;-140.66;100.00;55571.53;5140610;27;20030;-74
2023/06/23 10:44:31;;;;;;;10.57;9.32;;;;;;;-140.66;100.00;55571.53;5138507;27;20027;-74
2023/06/23 10:47:17;;;;;;;25.10;9.10;;;;;;;-140.66;100.00;55571.53;5138051;27;20114;-71
2023/06/23 10:50:03;;;;;;;10.45;8.35;;;;;;;-140.66;100.00;55571.53;5137360;27;20043;-72
2023/06/23 10:52:49;;;;;;;11.73;8.45;;;;;;;-140.66;100.00;55571.53;5137973;27;20030;-72
2023/06/23 10:55:38;;;;;;;9.75;8.75;;;;;;;-140.66;100.00;55571.53;5138317;27;20038;-72
2023/06/23 10:58:24;;;;;;;9.85;8.85;;;;;;;-140.66;100.00;55571.53;5117731;27;20118;-71
2023/06/23 11:01:10;;;;;;;12.05;9.07;;;;;;;-140.66;100.00;55571.53;5138266;27;20058;-72
2023/06/23 11:04:03;;;;;;;10.60;8.45;;;;;;;-140.66;100.00;55571.53;5138967;27;20467;-74
2023/06/23 11:07:10;;;;;;;9.90;8.90;;;;;;;-140.66;100.00;55571.53;5138306;27;20038;-73
2023/06/23 11:09:59;;;;;;;11.52;9.38;;;;;;;-140.66;100.00;55571.53;5131422;27;20027;-71
2023/06/23 11:12:49;;;;;;;13.60;9.55;;;;;;;-140.66;100.00;55571.53;5132151;27;20510;-72
2023/06/23 11:15:37;;;;;;;10.98;9.32;;;;;;;-140.66;100.00;55571.53;5120870;27;20023;-73
2023/06/23 11:18:23;;;;;;;12.45;9.80;;;;;;;-140.66;100.00;55571.53;5136930;27;20356;-73
2023/06/23 11:21:16;;;;;;;14.88;11.65;;;;;;;-140.66;100.00;55571.53;5122185;27;20023;-73
2023/06/23 11:24:06;;;;;;;13.35;11.70;;;;;;;-140.66;100.00;55571.53;5137302;27;20043;-75
2023/06/23 11:26:59;;;;;;;12.68;10.75;;;;;;;-140.66;100.00;55571.53;5122884;27;20016;-78
2023/06/23 11:30:14;;;;;;;10.90;9.45;;;;;;;-140.66;100.00;55571.53;5116941;28;20124;-75
2023/06/23 11:33:28;;;;;;;15.10;9.20;;;;;;;-140.66;100.00;55571.53;5116348;28;20084;-75
2023/06/23 11:36:16;;;;;;;12.80;9.63;;;;;;;-140.66;100.00;55571.53;5100547;28;20345;-77
2023/06/23 11:39:02;;;;;;;9.40;8.50;;;;;;;-140.66;100.00;55571.53;5115837;28;20111;-76
2023/06/23 11:41:48;;;;;;;12.52;9.18;;;;;;;-140.66;100.00;55571.53;5117061;28;20038;-76
2023/06/23 11:44:34;;;;;;;9.80;8.80;;;;;;;-140.66;100.00;55571.53;5102664;28;20062;-75
2023/06/23 11:47:27;;;;;;;10.75;9.57;;;;;;;-140.66;100.00;55571.53;5116953;28;20457;-75
2023/06/23 11:50:12;;;;;;;10.50;9.50;;;;;;;-140.66;100.00;55571.53;5115039;28;20042;-76
2023/06/23 11:52:58;;;;;;;10.50;9.40;;;;;;;-140.66;100.00;55571.53;5103649;28;20068;-74
2023/06/23 11:55:44;;;;;;;11.60;8.90;;;;;;;-140.66;100.00;55571.53;5150495;27;20102;-75
2023/06/23 11:58:34;;;;;;;15.38;9.15;;;;;;;-140.66;100.00;55571.53;5156230;27;20044;-75
2023/06/23 12:01:19;;;;;;;10.18;8.43;;;;;;;-140.66;100.00;55571.53;5120356;27;20081;-74
2023/06/23 12:04:06;;;;;;;9.38;8.35;;;;;;;-140.66;100.00;55571.53;5132944;27;20023;-75
2023/06/23 12:06:52;;;;;;;10.40;8.73;;;;;;;-140.66;100.00;55571.53;5121433;27;20042;-75
2023/06/23 12:09:41;;;;;;;10.85;8.85;;;;;;;-140.66;100.00;55571.53;5135804;27;20034;-77
2023/06/23 12:12:27;;;;;;;10.48;8.48;;;;;;;-140.66;100.00;55571.53;5135789;27;20033;-76
2023/06/23 12:15:14;;;;;;;11.98;9.02;;;;;;;-140.66;100.00;55571.53;5136368;27;20023;-74
2023/06/23 12:18:00;;;;;;;9.73;8.73;;;;;;;-140.66;100.00;55571.53;5114891;28;20035;-71
2023/06/23 12:20:46;;;;;;;9.18;8.27;;;;;;;-140.66;100.00;55571.53;5113631;28;20456;-71
2023/06/23 12:23:32;;;;;;;9.75;8.45;;;;;;;-140.66;100.00;55571.53;5114823;28;20406;-71
2023/06/23 12:26:19;;;;;;;11.88;8.70;;;;;;;-140.66;100.00;55571.53;5115713;28;20035;-71
2023/06/23 12:29:09;;;;;;;9.13;8.23;;;;;;;-140.66;100.00;55571.53;5114758;28;20031;-69
2023/06/23 12:31:56;;;;;;;12.48;8.38;;;;;;;-140.66;100.00;55571.53;5115238;28;20092;-74